This is the latest recevied weather packets stored in our database for station/object M3SXA-5. If no packets are shown the sender has not sent any weather packets the latest 10 day(s).
| Time | Temp. | Humidity | Pressure | Rain* | Wind** | Luminosity | Snow |
|---|---|---|---|---|---|---|---|
| 1777216548 | 19.44° C | 38% | 1025.3 hPa | 0 mm | - | - | - |
| 1777215654 | 19.44° C | 38% | 1025.5 hPa | 0 mm | - | - | - |
| 1777211143 | 18.89° C | 40% | 1026 hPa | 0 mm | - | - | - |
| 1777202121 | 15.56° C | 55% | 1026.9 hPa | 0 mm | - | - | - |
| 1777200316 | 15.56° C | 59% | 1027 hPa | 0 mm | - | - | - |
| 1777193153 | 10° C | 80% | 1027.3 hPa | 0 mm | - | - | - |
| 1777192246 | 8.33° C | 85% | 1027.2 hPa | 0 mm | - | - | - |
| 1777177826 | 5.56° C | 93% | 1026 hPa | 0 mm | - | - | - |
| 1777176924 | 5.56° C | 93% | 1026 hPa | 0 mm | - | - | - |
| 1777173319 | 5.56° C | 93% | 1025.9 hPa | 0 mm | - | - | - |
| 1777167908 | 6.11° C | 91% | 1025.6 hPa | 0 mm | - | - | - |
| 1777166104 | 6.11° C | 90% | 1025.5 hPa | 0 mm | - | - | - |
| 1777158043 | 8.33° C | 83% | 1024.7 hPa | 0 mm | - | - | - |
| 1777152640 | 10° C | 76% | 1023.9 hPa | 0 mm | - | - | - |
| 1777151752 | 10° C | 75% | 1023.8 hPa | 0 mm | - | - | - |
| 1777145439 | 13.33° C | 49% | 1022.9 hPa | 0 mm | - | - | - |
| 1777140933 | 18.33° C | 26% | 1022.4 hPa | 0 mm | - | - | - |
| 1777140038 | 18.89° C | 26% | 1022.3 hPa | 0 mm | - | - | - |
| 1777135528 | 19.44° C | 20% | 1022.1 hPa | 0 mm | - | - | - |
| 1777126515 | 21.11° C | 18% | 1022.3 hPa | 0 mm | - | - | - |
| 1777119313 | 20° C | 17% | 1022.5 hPa | 0 mm | - | - | - |
| 1777116658 | 19.44° C | 18% | 1023.2 hPa | 0 mm | - | - | - |
| 1777109444 | 16.11° C | 32% | 1023.3 hPa | 0 mm | - | - | - |
| 1777107650 | 15° C | 25% | 1023.2 hPa | 0 mm | - | - | - |
| 1777104945 | 12.78° C | 49% | 1023.4 hPa | 0 mm | - | - | - |
* Rain latest hour (hover to see other rain measurements)
** Current wind speed in m/s (hover to see current wind gust speed)